sensor_id;sensor_type;location;lat;lon;timestamp;P1;durP1;ratioP1;P2;durP2;ratioP2
12892;SDS011;6514;48.606;9.222;2023-02-15T00:01:06;35.53;;;22.60;;
12892;SDS011;6514;48.606;9.222;2023-02-15T00:03:34;38.37;;;21.90;;
12892;SDS011;6514;48.606;9.222;2023-02-15T00:06:01;38.20;;;22.97;;
12892;SDS011;6514;48.606;9.222;2023-02-15T00:08:29;38.13;;;22.53;;
12892;SDS011;6514;48.606;9.222;2023-02-15T00:11:03;34.37;;;21.80;;
12892;SDS011;6514;48.606;9.222;2023-02-15T00:13:32;34.10;;;20.73;;
12892;SDS011;6514;48.606;9.222;2023-02-15T00:16:01;35.37;;;20.83;;
12892;SDS011;6514;48.606;9.222;2023-02-15T00:18:28;38.10;;;21.70;;
12892;SDS011;6514;48.606;9.222;2023-02-15T00:20:55;38.17;;;22.00;;
12892;SDS011;6514;48.606;9.222;2023-02-15T00:23:22;36.30;;;21.30;;
12892;SDS011;6514;48.606;9.222;2023-02-15T00:25:49;38.90;;;23.40;;
12892;SDS011;6514;48.606;9.222;2023-02-15T00:28:16;36.97;;;21.63;;
12892;SDS011;6514;48.606;9.222;2023-02-15T00:30:44;37.13;;;22.53;;
12892;SDS011;6514;48.606;9.222;2023-02-15T00:33:11;38.50;;;23.60;;
12892;SDS011;6514;48.606;9.222;2023-02-15T00:35:38;36.13;;;21.93;;
12892;SDS011;6514;48.606;9.222;2023-02-15T00:38:05;41.73;;;24.60;;
12892;SDS011;6514;48.606;9.222;2023-02-15T00:40:32;40.97;;;23.40;;
12892;SDS011;6514;48.606;9.222;2023-02-15T00:42:58;39.70;;;23.07;;
12892;SDS011;6514;48.606;9.222;2023-02-15T00:45:25;42.57;;;24.37;;
12892;SDS011;6514;48.606;9.222;2023-02-15T00:47:53;42.93;;;24.23;;
12892;SDS011;6514;48.606;9.222;2023-02-15T00:50:20;46.37;;;25.00;;
12892;SDS011;6514;48.606;9.222;2023-02-15T00:52:47;43.03;;;24.77;;
12892;SDS011;6514;48.606;9.222;2023-02-15T00:55:14;41.27;;;23.37;;
12892;SDS011;6514;48.606;9.222;2023-02-15T00:57:41;37.63;;;22.63;;
12892;SDS011;6514;48.606;9.222;2023-02-15T01:00:08;36.73;;;22.30;;
12892;SDS011;6514;48.606;9.222;2023-02-15T01:02:36;39.40;;;22.40;;
12892;SDS011;6514;48.606;9.222;2023-02-15T01:05:05;44.47;;;24.03;;
12892;SDS011;6514;48.606;9.222;2023-02-15T01:07:32;39.47;;;23.57;;
12892;SDS011;6514;48.606;9.222;2023-02-15T01:09:59;42.20;;;24.17;;
12892;SDS011;6514;48.606;9.222;2023-02-15T01:12:25;37.77;;;23.27;;
12892;SDS011;6514;48.606;9.222;2023-02-15T01:14:52;36.37;;;20.93;;
12892;SDS011;6514;48.606;9.222;2023-02-15T01:17:19;33.87;;;21.90;;
12892;SDS011;6514;48.606;9.222;2023-02-15T01:19:46;39.67;;;23.13;;
12892;SDS011;6514;48.606;9.222;2023-02-15T01:22:14;35.03;;;22.27;;
12892;SDS011;6514;48.606;9.222;2023-02-15T01:24:41;38.87;;;22.70;;
12892;SDS011;6514;48.606;9.222;2023-02-15T01:27:08;41.47;;;23.63;;
12892;SDS011;6514;48.606;9.222;2023-02-15T01:29:34;39.93;;;22.37;;
12892;SDS011;6514;48.606;9.222;2023-02-15T01:32:02;35.37;;;22.00;;
12892;SDS011;6514;48.606;9.222;2023-02-15T01:34:29;39.77;;;23.77;;
12892;SDS011;6514;48.606;9.222;2023-02-15T01:36:56;41.13;;;22.87;;
12892;SDS011;6514;48.606;9.222;2023-02-15T01:39:24;37.93;;;22.20;;
12892;SDS011;6514;48.606;9.222;2023-02-15T01:41:51;38.37;;;21.57;;
12892;SDS011;6514;48.606;9.222;2023-02-15T01:47:13;39.33;;;22.43;;
12892;SDS011;6514;48.606;9.222;2023-02-15T01:49:42;37.50;;;23.10;;
12892;SDS011;6514;48.606;9.222;2023-02-15T01:52:12;37.50;;;22.30;;
12892;SDS011;6514;48.606;9.222;2023-02-15T01:54:44;40.20;;;21.80;;
12892;SDS011;6514;48.606;9.222;2023-02-15T01:57:14;38.30;;;20.83;;
12892;SDS011;6514;48.606;9.222;2023-02-15T01:59:46;33.53;;;19.77;;
12892;SDS011;6514;48.606;9.222;2023-02-15T02:02:16;37.43;;;21.33;;
12892;SDS011;6514;48.606;9.222;2023-02-15T02:04:47;31.97;;;20.73;;
12892;SDS011;6514;48.606;9.222;2023-02-15T02:07:16;35.30;;;20.03;;
12892;SDS011;6514;48.606;9.222;2023-02-15T02:09:47;33.97;;;21.03;;
12892;SDS011;6514;48.606;9.222;2023-02-15T02:12:14;36.17;;;20.87;;
12892;SDS011;6514;48.606;9.222;2023-02-15T02:14:43;34.20;;;20.80;;
12892;SDS011;6514;48.606;9.222;2023-02-15T02:17:15;34.57;;;22.00;;
12892;SDS011;6514;48.606;9.222;2023-02-15T02:19:57;34.90;;;21.53;;
12892;SDS011;6514;48.606;9.222;2023-02-15T02:23:08;36.17;;;20.57;;
12892;SDS011;6514;48.606;9.222;2023-02-15T02:29:09;31.67;;;20.00;;
12892;SDS011;6514;48.606;9.222;2023-02-15T02:32:07;35.50;;;21.30;;
12892;SDS011;6514;48.606;9.222;2023-02-15T02:35:13;32.40;;;19.63;;
12892;SDS011;6514;48.606;9.222;2023-02-15T02:37:46;36.97;;;22.03;;
12892;SDS011;6514;48.606;9.222;2023-02-15T02:40:23;33.43;;;21.87;;
12892;SDS011;6514;48.606;9.222;2023-02-15T02:42:55;38.60;;;22.97;;
12892;SDS011;6514;48.606;9.222;2023-02-15T02:45:28;36.27;;;21.30;;
12892;SDS011;6514;48.606;9.222;2023-02-15T02:48:03;32.37;;;20.90;;
12892;SDS011;6514;48.606;9.222;2023-02-15T02:50:35;32.47;;;20.13;;
12892;SDS011;6514;48.606;9.222;2023-02-15T02:53:04;34.40;;;21.20;;
12892;SDS011;6514;48.606;9.222;2023-02-15T02:55:32;37.13;;;22.30;;
12892;SDS011;6514;48.606;9.222;2023-02-15T02:58:04;34.97;;;21.37;;
12892;SDS011;6514;48.606;9.222;2023-02-15T03:00:35;33.70;;;20.23;;
12892;SDS011;6514;48.606;9.222;2023-02-15T03:03:06;34.53;;;20.87;;
12892;SDS011;6514;48.606;9.222;2023-02-15T03:05:39;32.60;;;19.77;;
12892;SDS011;6514;48.606;9.222;2023-02-15T03:08:09;33.27;;;21.20;;
12892;SDS011;6514;48.606;9.222;2023-02-15T03:10:38;33.40;;;19.83;;
12892;SDS011;6514;48.606;9.222;2023-02-15T03:13:06;34.27;;;20.77;;
12892;SDS011;6514;48.606;9.222;2023-02-15T03:15:36;39.87;;;22.57;;
12892;SDS011;6514;48.606;9.222;2023-02-15T03:18:34;37.37;;;21.13;;
12892;SDS011;6514;48.606;9.222;2023-02-15T03:21:05;37.37;;;22.97;;
12892;SDS011;6514;48.606;9.222;2023-02-15T03:23:33;37.93;;;21.43;;
12892;SDS011;6514;48.606;9.222;2023-02-15T03:26:04;38.80;;;21.83;;
12892;SDS011;6514;48.606;9.222;2023-02-15T03:28:35;31.87;;;20.03;;
12892;SDS011;6514;48.606;9.222;2023-02-15T03:31:06;36.00;;;21.43;;
12892;SDS011;6514;48.606;9.222;2023-02-15T03:33:36;37.47;;;21.00;;
12892;SDS011;6514;48.606;9.222;2023-02-15T03:36:12;34.93;;;20.67;;
12892;SDS011;6514;48.606;9.222;2023-02-15T03:38:45;36.40;;;21.00;;
12892;SDS011;6514;48.606;9.222;2023-02-15T03:41:16;33.33;;;20.20;;
12892;SDS011;6514;48.606;9.222;2023-02-15T03:43:47;41.53;;;21.97;;
12892;SDS011;6514;48.606;9.222;2023-02-15T03:46:20;35.60;;;21.57;;
12892;SDS011;6514;48.606;9.222;2023-02-15T03:48:51;36.90;;;20.87;;
12892;SDS011;6514;48.606;9.222;2023-02-15T03:51:22;31.43;;;19.27;;
12892;SDS011;6514;48.606;9.222;2023-02-15T03:54:04;37.07;;;22.50;;
12892;SDS011;6514;48.606;9.222;2023-02-15T03:56:34;39.40;;;21.50;;
12892;SDS011;6514;48.606;9.222;2023-02-15T03:59:03;34.23;;;20.67;;
12892;SDS011;6514;48.606;9.222;2023-02-15T04:01:50;32.57;;;20.43;;
12892;SDS011;6514;48.606;9.222;2023-02-15T04:04:28;36.03;;;20.83;;
12892;SDS011;6514;48.606;9.222;2023-02-15T04:07:00;33.83;;;20.33;;
12892;SDS011;6514;48.606;9.222;2023-02-15T04:09:28;32.17;;;19.67;;
12892;SDS011;6514;48.606;9.222;2023-02-15T04:12:12;32.30;;;20.10;;
12892;SDS011;6514;48.606;9.222;2023-02-15T04:14:39;30.03;;;19.87;;
12892;SDS011;6514;48.606;9.222;2023-02-15T04:17:20;33.87;;;19.67;;
12892;SDS011;6514;48.606;9.222;2023-02-15T04:19:47;30.67;;;18.07;;
12892;SDS011;6514;48.606;9.222;2023-02-15T04:22:32;27.83;;;19.73;;
12892;SDS011;6514;48.606;9.222;2023-02-15T04:25:17;33.20;;;20.90;;
12892;SDS011;6514;48.606;9.222;2023-02-15T04:27:45;38.83;;;24.10;;
12892;SDS011;6514;48.606;9.222;2023-02-15T04:30:14;43.13;;;24.80;;
12892;SDS011;6514;48.606;9.222;2023-02-15T04:32:41;33.97;;;21.97;;
12892;SDS011;6514;48.606;9.222;2023-02-15T04:35:09;36.03;;;21.80;;
12892;SDS011;6514;48.606;9.222;2023-02-15T04:37:38;37.80;;;23.97;;
12892;SDS011;6514;48.606;9.222;2023-02-15T04:40:05;40.03;;;23.07;;
12892;SDS011;6514;48.606;9.222;2023-02-15T04:42:33;35.20;;;23.40;;
12892;SDS011;6514;48.606;9.222;2023-02-15T04:45:00;35.33;;;22.03;;
12892;SDS011;6514;48.606;9.222;2023-02-15T04:47:27;34.57;;;21.57;;
12892;SDS011;6514;48.606;9.222;2023-02-15T04:49:54;40.80;;;24.27;;
12892;SDS011;6514;48.606;9.222;2023-02-15T04:52:21;36.80;;;24.43;;
12892;SDS011;6514;48.606;9.222;2023-02-15T04:54:50;48.10;;;26.93;;
12892;SDS011;6514;48.606;9.222;2023-02-15T04:57:16;43.70;;;26.53;;
12892;SDS011;6514;48.606;9.222;2023-02-15T04:59:43;41.60;;;25.47;;
12892;SDS011;6514;48.606;9.222;2023-02-15T05:02:10;41.23;;;25.03;;
12892;SDS011;6514;48.606;9.222;2023-02-15T05:04:37;49.53;;;28.90;;
12892;SDS011;6514;48.606;9.222;2023-02-15T05:07:04;49.27;;;28.33;;
12892;SDS011;6514;48.606;9.222;2023-02-15T05:09:31;39.23;;;25.33;;
12892;SDS011;6514;48.606;9.222;2023-02-15T05:11:59;47.33;;;27.37;;
12892;SDS011;6514;48.606;9.222;2023-02-15T05:14:26;44.83;;;24.30;;
12892;SDS011;6514;48.606;9.222;2023-02-15T05:16:53;40.40;;;24.90;;
12892;SDS011;6514;48.606;9.222;2023-02-15T05:19:19;41.33;;;24.70;;
12892;SDS011;6514;48.606;9.222;2023-02-15T05:21:48;41.27;;;24.47;;
12892;SDS011;6514;48.606;9.222;2023-02-15T05:24:15;37.73;;;23.70;;
12892;SDS011;6514;48.606;9.222;2023-02-15T05:27:03;36.53;;;22.00;;
12892;SDS011;6514;48.606;9.222;2023-02-15T05:29:47;31.50;;;20.30;;
12892;SDS011;6514;48.606;9.222;2023-02-15T05:32:16;31.37;;;20.50;;
12892;SDS011;6514;48.606;9.222;2023-02-15T05:34:43;38.33;;;21.97;;
12892;SDS011;6514;48.606;9.222;2023-02-15T05:37:09;39.77;;;24.40;;
12892;SDS011;6514;48.606;9.222;2023-02-15T05:39:36;38.67;;;22.63;;
12892;SDS011;6514;48.606;9.222;2023-02-15T05:42:04;32.10;;;20.97;;
12892;SDS011;6514;48.606;9.222;2023-02-15T05:44:32;33.00;;;19.90;;
12892;SDS011;6514;48.606;9.222;2023-02-15T05:46:59;30.70;;;19.97;;
12892;SDS011;6514;48.606;9.222;2023-02-15T05:49:27;32.70;;;20.53;;
12892;SDS011;6514;48.606;9.222;2023-02-15T05:51:55;35.23;;;22.23;;
12892;SDS011;6514;48.606;9.222;2023-02-15T05:54:22;31.43;;;19.97;;
12892;SDS011;6514;48.606;9.222;2023-02-15T05:56:49;26.93;;;17.97;;
12892;SDS011;6514;48.606;9.222;2023-02-15T05:59:17;30.70;;;20.13;;
12892;SDS011;6514;48.606;9.222;2023-02-15T06:01:44;28.53;;;18.50;;
12892;SDS011;6514;48.606;9.222;2023-02-15T06:04:12;27.83;;;18.73;;
12892;SDS011;6514;48.606;9.222;2023-02-15T06:06:39;31.27;;;19.63;;
12892;SDS011;6514;48.606;9.222;2023-02-15T06:09:06;31.20;;;19.20;;
12892;SDS011;6514;48.606;9.222;2023-02-15T06:11:32;32.67;;;20.23;;
12892;SDS011;6514;48.606;9.222;2023-02-15T06:13:59;30.90;;;19.30;;
12892;SDS011;6514;48.606;9.222;2023-02-15T06:16:27;32.43;;;20.37;;
12892;SDS011;6514;48.606;9.222;2023-02-15T06:18:55;32.70;;;20.57;;
12892;SDS011;6514;48.606;9.222;2023-02-15T06:21:22;34.77;;;22.00;;
12892;SDS011;6514;48.606;9.222;2023-02-15T06:23:48;36.07;;;21.90;;
12892;SDS011;6514;48.606;9.222;2023-02-15T06:26:15;34.63;;;21.03;;
12892;SDS011;6514;48.606;9.222;2023-02-15T06:28:42;28.73;;;20.47;;
12892;SDS011;6514;48.606;9.222;2023-02-15T06:31:09;32.03;;;20.77;;
12892;SDS011;6514;48.606;9.222;2023-02-15T06:33:37;35.07;;;21.90;;
12892;SDS011;6514;48.606;9.222;2023-02-15T06:36:04;34.60;;;22.10;;
12892;SDS011;6514;48.606;9.222;2023-02-15T06:38:31;33.10;;;22.20;;
12892;SDS011;6514;48.606;9.222;2023-02-15T06:40:58;33.80;;;20.80;;
12892;SDS011;6514;48.606;9.222;2023-02-15T06:43:25;30.90;;;20.97;;
12892;SDS011;6514;48.606;9.222;2023-02-15T06:45:52;30.63;;;19.90;;
12892;SDS011;6514;48.606;9.222;2023-02-15T06:48:18;31.33;;;19.47;;
12892;SDS011;6514;48.606;9.222;2023-02-15T06:50:46;33.07;;;20.50;;
12892;SDS011;6514;48.606;9.222;2023-02-15T06:53:14;34.80;;;20.03;;
12892;SDS011;6514;48.606;9.222;2023-02-15T06:55:41;29.60;;;18.63;;
12892;SDS011;6514;48.606;9.222;2023-02-15T06:58:07;30.03;;;19.60;;
12892;SDS011;6514;48.606;9.222;2023-02-15T07:00:35;32.47;;;20.67;;
12892;SDS011;6514;48.606;9.222;2023-02-15T07:03:01;33.30;;;20.93;;
12892;SDS011;6514;48.606;9.222;2023-02-15T07:05:28;32.00;;;21.20;;
12892;SDS011;6514;48.606;9.222;2023-02-15T07:08:00;35.63;;;21.30;;
12892;SDS011;6514;48.606;9.222;2023-02-15T07:10:27;36.63;;;22.67;;
12892;SDS011;6514;48.606;9.222;2023-02-15T07:12:54;36.13;;;23.33;;
12892;SDS011;6514;48.606;9.222;2023-02-15T07:15:20;37.10;;;22.90;;
12892;SDS011;6514;48.606;9.222;2023-02-15T07:17:47;36.67;;;23.93;;
12892;SDS011;6514;48.606;9.222;2023-02-15T07:20:15;37.20;;;24.50;;
12892;SDS011;6514;48.606;9.222;2023-02-15T07:22:44;37.50;;;23.57;;
12892;SDS011;6514;48.606;9.222;2023-02-15T07:25:12;39.77;;;27.33;;
12892;SDS011;6514;48.606;9.222;2023-02-15T07:27:39;52.40;;;35.70;;
12892;SDS011;6514;48.606;9.222;2023-02-15T07:30:08;46.07;;;30.07;;
12892;SDS011;6514;48.606;9.222;2023-02-15T07:32:37;47.07;;;30.87;;
12892;SDS011;6514;48.606;9.222;2023-02-15T07:35:24;39.27;;;27.67;;
12892;SDS011;6514;48.606;9.222;2023-02-15T07:37:51;40.23;;;29.00;;
12892;SDS011;6514;48.606;9.222;2023-02-15T07:40:19;27.17;;;21.30;;
12892;SDS011;6514;48.606;9.222;2023-02-15T07:42:48;28.50;;;20.73;;
12892;SDS011;6514;48.606;9.222;2023-02-15T07:45:16;26.47;;;19.60;;
12892;SDS011;6514;48.606;9.222;2023-02-15T07:47:43;28.13;;;21.43;;
12892;SDS011;6514;48.606;9.222;2023-02-15T07:50:10;36.30;;;21.90;;
12892;SDS011;6514;48.606;9.222;2023-02-15T07:52:37;25.77;;;20.57;;
12892;SDS011;6514;48.606;9.222;2023-02-15T07:55:04;28.90;;;24.23;;
12892;SDS011;6514;48.606;9.222;2023-02-15T07:57:33;30.27;;;25.53;;
12892;SDS011;6514;48.606;9.222;2023-02-15T07:59:59;30.17;;;27.10;;
12892;SDS011;6514;48.606;9.222;2023-02-15T08:02:26;29.57;;;25.20;;
12892;SDS011;6514;48.606;9.222;2023-02-15T08:04:55;28.93;;;22.77;;
12892;SDS011;6514;48.606;9.222;2023-02-15T08:07:22;25.90;;;21.73;;
12892;SDS011;6514;48.606;9.222;2023-02-15T08:09:48;23.23;;;19.07;;
12892;SDS011;6514;48.606;9.222;2023-02-15T08:12:15;26.40;;;21.73;;
12892;SDS011;6514;48.606;9.222;2023-02-15T08:14:43;24.63;;;21.50;;
12892;SDS011;6514;48.606;9.222;2023-02-15T08:17:10;25.03;;;22.27;;
12892;SDS011;6514;48.606;9.222;2023-02-15T08:19:37;23.87;;;21.17;;
12892;SDS011;6514;48.606;9.222;2023-02-15T08:22:04;21.57;;;19.27;;
12892;SDS011;6514;48.606;9.222;2023-02-15T08:24:33;26.50;;;20.77;;
12892;SDS011;6514;48.606;9.222;2023-02-15T08:27:02;23.67;;;20.17;;
12892;SDS011;6514;48.606;9.222;2023-02-15T08:29:30;22.40;;;19.87;;
12892;SDS011;6514;48.606;9.222;2023-02-15T08:31:59;22.13;;;19.43;;
12892;SDS011;6514;48.606;9.222;2023-02-15T08:34:28;21.60;;;17.33;;
12892;SDS011;6514;48.606;9.222;2023-02-15T08:36:55;16.80;;;14.77;;
12892;SDS011;6514;48.606;9.222;2023-02-15T08:39:23;16.40;;;14.43;;
12892;SDS011;6514;48.606;9.222;2023-02-15T08:41:49;17.30;;;14.17;;
12892;SDS011;6514;48.606;9.222;2023-02-15T08:44:17;17.53;;;14.17;;
12892;SDS011;6514;48.606;9.222;2023-02-15T08:46:45;18.33;;;14.80;;
12892;SDS011;6514;48.606;9.222;2023-02-15T08:49:15;19.10;;;14.43;;
12892;SDS011;6514;48.606;9.222;2023-02-15T08:51:43;17.17;;;14.20;;
12892;SDS011;6514;48.606;9.222;2023-02-15T08:54:12;18.63;;;13.97;;
12892;SDS011;6514;48.606;9.222;2023-02-15T08:56:41;16.43;;;13.57;;
12892;SDS011;6514;48.606;9.222;2023-02-15T08:59:11;13.97;;;12.33;;
12892;SDS011;6514;48.606;9.222;2023-02-15T09:01:40;15.50;;;12.30;;
12892;SDS011;6514;48.606;9.222;2023-02-15T09:04:07;16.73;;;13.00;;
12892;SDS011;6514;48.606;9.222;2023-02-15T09:06:36;16.87;;;12.23;;
12892;SDS011;6514;48.606;9.222;2023-02-15T09:09:04;15.67;;;12.10;;
12892;SDS011;6514;48.606;9.222;2023-02-15T09:11:33;14.50;;;12.67;;
12892;SDS011;6514;48.606;9.222;2023-02-15T09:14:02;16.37;;;13.60;;
12892;SDS011;6514;48.606;9.222;2023-02-15T09:16:31;16.27;;;13.00;;
12892;SDS011;6514;48.606;9.222;2023-02-15T09:18:59;16.40;;;14.50;;
12892;SDS011;6514;48.606;9.222;2023-02-15T09:21:27;15.47;;;12.70;;
12892;SDS011;6514;48.606;9.222;2023-02-15T09:23:57;14.27;;;11.90;;
12892;SDS011;6514;48.606;9.222;2023-02-15T09:26:25;15.30;;;11.90;;
12892;SDS011;6514;48.606;9.222;2023-02-15T09:28:54;13.50;;;10.80;;
12892;SDS011;6514;48.606;9.222;2023-02-15T09:31:22;12.50;;;11.13;;
12892;SDS011;6514;48.606;9.222;2023-02-15T09:33:50;14.03;;;11.60;;
12892;SDS011;6514;48.606;9.222;2023-02-15T09:36:18;12.77;;;11.33;;
12892;SDS011;6514;48.606;9.222;2023-02-15T09:38:47;15.10;;;12.93;;
12892;SDS011;6514;48.606;9.222;2023-02-15T09:41:26;14.80;;;12.47;;
12892;SDS011;6514;48.606;9.222;2023-02-15T09:44:22;13.90;;;12.47;;
12892;SDS011;6514;48.606;9.222;2023-02-15T09:49:52;13.60;;;11.60;;
12892;SDS011;6514;48.606;9.222;2023-02-15T09:52:30;12.93;;;11.57;;
12892;SDS011;6514;48.606;9.222;2023-02-15T09:55:12;14.47;;;11.80;;
12892;SDS011;6514;48.606;9.222;2023-02-15T09:57:51;13.30;;;11.60;;
12892;SDS011;6514;48.606;9.222;2023-02-15T10:00:26;14.10;;;11.87;;
12892;SDS011;6514;48.606;9.222;2023-02-15T10:03:04;15.50;;;11.47;;
12892;SDS011;6514;48.606;9.222;2023-02-15T10:05:42;11.40;;;10.10;;
12892;SDS011;6514;48.606;9.222;2023-02-15T10:11:26;14.00;;;10.70;;
12892;SDS011;6514;48.606;9.222;2023-02-15T10:14:12;13.37;;;10.57;;
12892;SDS011;6514;48.606;9.222;2023-02-15T10:16:54;12.27;;;10.30;;
12892;SDS011;6514;48.606;9.222;2023-02-15T10:19:31;12.53;;;11.23;;
12892;SDS011;6514;48.606;9.222;2023-02-15T10:22:10;14.00;;;10.93;;
12892;SDS011;6514;48.606;9.222;2023-02-15T10:24:52;11.27;;;9.80;;
12892;SDS011;6514;48.606;9.222;2023-02-15T10:27:37;10.93;;;9.77;;
12892;SDS011;6514;48.606;9.222;2023-02-15T10:30:13;10.00;;;8.97;;
12892;SDS011;6514;48.606;9.222;2023-02-15T10:32:42;12.07;;;10.13;;
12892;SDS011;6514;48.606;9.222;2023-02-15T10:35:20;13.13;;;10.97;;
12892;SDS011;6514;48.606;9.222;2023-02-15T10:37:57;12.07;;;10.03;;
12892;SDS011;6514;48.606;9.222;2023-02-15T10:40:39;12.10;;;9.37;;
12892;SDS011;6514;48.606;9.222;2023-02-15T10:43:27;10.90;;;9.57;;
12892;SDS011;6514;48.606;9.222;2023-02-15T10:46:15;13.97;;;10.93;;
12892;SDS011;6514;48.606;9.222;2023-02-15T10:49:00;12.60;;;10.00;;
12892;SDS011;6514;48.606;9.222;2023-02-15T10:51:45;14.70;;;9.80;;
12892;SDS011;6514;48.606;9.222;2023-02-15T10:54:25;12.17;;;10.00;;
12892;SDS011;6514;48.606;9.222;2023-02-15T10:57:00;10.83;;;9.70;;
12892;SDS011;6514;48.606;9.222;2023-02-15T10:59:37;10.37;;;9.33;;
12892;SDS011;6514;48.606;9.222;2023-02-15T11:02:27;10.20;;;8.93;;
12892;SDS011;6514;48.606;9.222;2023-02-15T11:05:20;9.27;;;8.37;;
12892;SDS011;6514;48.606;9.222;2023-02-15T11:07:58;9.57;;;8.57;;
12892;SDS011;6514;48.606;9.222;2023-02-15T11:10:30;10.13;;;8.33;;
12892;SDS011;6514;48.606;9.222;2023-02-15T11:13:02;11.20;;;9.10;;
12892;SDS011;6514;48.606;9.222;2023-02-15T11:15:34;9.83;;;8.10;;
12892;SDS011;6514;48.606;9.222;2023-02-15T11:18:05;11.90;;;8.40;;
12892;SDS011;6514;48.606;9.222;2023-02-15T11:20:38;13.50;;;9.23;;
12892;SDS011;6514;48.606;9.222;2023-02-15T11:23:12;9.97;;;8.93;;
12892;SDS011;6514;48.606;9.222;2023-02-15T11:25:44;12.77;;;9.93;;
12892;SDS011;6514;48.606;9.222;2023-02-15T11:28:17;10.80;;;9.70;;
12892;SDS011;6514;48.606;9.222;2023-02-15T11:30:49;12.13;;;10.93;;
12892;SDS011;6514;48.606;9.222;2023-02-15T11:33:21;10.30;;;8.83;;
12892;SDS011;6514;48.606;9.222;2023-02-15T11:35:53;11.87;;;9.00;;
12892;SDS011;6514;48.606;9.222;2023-02-15T11:38:26;11.23;;;8.93;;
12892;SDS011;6514;48.606;9.222;2023-02-15T11:40:57;12.10;;;9.77;;
12892;SDS011;6514;48.606;9.222;2023-02-15T11:43:31;11.93;;;9.47;;
12892;SDS011;6514;48.606;9.222;2023-02-15T11:46:02;10.70;;;9.17;;
12892;SDS011;6514;48.606;9.222;2023-02-15T11:48:31;11.23;;;9.10;;
12892;SDS011;6514;48.606;9.222;2023-02-15T11:50:58;10.07;;;8.30;;
12892;SDS011;6514;48.606;9.222;2023-02-15T11:53:26;9.80;;;8.43;;
12892;SDS011;6514;48.606;9.222;2023-02-15T11:55:58;10.53;;;8.20;;
12892;SDS011;6514;48.606;9.222;2023-02-15T11:58:30;11.90;;;8.73;;
12892;SDS011;6514;48.606;9.222;2023-02-15T12:01:06;9.97;;;8.97;;
12892;SDS011;6514;48.606;9.222;2023-02-15T12:03:42;14.03;;;9.70;;
12892;SDS011;6514;48.606;9.222;2023-02-15T12:06:14;12.90;;;8.90;;
12892;SDS011;6514;48.606;9.222;2023-02-15T12:08:48;9.47;;;8.10;;
12892;SDS011;6514;48.606;9.222;2023-02-15T12:11:20;8.93;;;8.03;;
12892;SDS011;6514;48.606;9.222;2023-02-15T12:13:56;9.83;;;8.83;;
12892;SDS011;6514;48.606;9.222;2023-02-15T12:16:24;9.60;;;8.60;;
12892;SDS011;6514;48.606;9.222;2023-02-15T12:18:54;9.83;;;8.93;;
12892;SDS011;6514;48.606;9.222;2023-02-15T12:21:25;10.47;;;9.37;;
12892;SDS011;6514;48.606;9.222;2023-02-15T12:23:55;11.03;;;8.97;;
12892;SDS011;6514;48.606;9.222;2023-02-15T12:26:24;11.87;;;9.43;;
12892;SDS011;6514;48.606;9.222;2023-02-15T12:28:53;10.90;;;9.27;;
12892;SDS011;6514;48.606;9.222;2023-02-15T12:31:24;10.47;;;9.47;;
12892;SDS011;6514;48.606;9.222;2023-02-15T12:33:56;9.97;;;8.57;;
12892;SDS011;6514;48.606;9.222;2023-02-15T12:36:29;10.43;;;9.33;;
12892;SDS011;6514;48.606;9.222;2023-02-15T12:39:05;10.47;;;8.67;;
12892;SDS011;6514;48.606;9.222;2023-02-15T12:41:44;10.50;;;8.63;;
12892;SDS011;6514;48.606;9.222;2023-02-15T12:44:15;11.43;;;8.70;;
12892;SDS011;6514;48.606;9.222;2023-02-15T12:46:53;9.80;;;8.53;;
12892;SDS011;6514;48.606;9.222;2023-02-15T12:49:24;10.80;;;9.03;;
12892;SDS011;6514;48.606;9.222;2023-02-15T12:51:52;10.10;;;9.10;;
12892;SDS011;6514;48.606;9.222;2023-02-15T12:54:31;11.10;;;9.10;;
12892;SDS011;6514;48.606;9.222;2023-02-15T12:57:25;10.27;;;9.07;;
12892;SDS011;6514;48.606;9.222;2023-02-15T12:59:54;13.53;;;9.30;;
12892;SDS011;6514;48.606;9.222;2023-02-15T13:02:24;10.10;;;9.03;;
12892;SDS011;6514;48.606;9.222;2023-02-15T13:04:55;12.80;;;10.77;;
12892;SDS011;6514;48.606;9.222;2023-02-15T13:07:30;12.10;;;10.60;;
12892;SDS011;6514;48.606;9.222;2023-02-15T13:09:58;11.13;;;10.03;;
12892;SDS011;6514;48.606;9.222;2023-02-15T13:12:25;14.37;;;10.23;;
12892;SDS011;6514;48.606;9.222;2023-02-15T13:14:56;13.63;;;10.00;;
12892;SDS011;6514;48.606;9.222;2023-02-15T13:17:24;12.93;;;10.07;;
12892;SDS011;6514;48.606;9.222;2023-02-15T13:19:57;12.60;;;10.87;;
12892;SDS011;6514;48.606;9.222;2023-02-15T13:22:28;12.67;;;11.37;;
12892;SDS011;6514;48.606;9.222;2023-02-15T13:25:02;14.90;;;11.07;;
12892;SDS011;6514;48.606;9.222;2023-02-15T13:27:32;14.73;;;11.73;;
12892;SDS011;6514;48.606;9.222;2023-02-15T13:30:08;15.53;;;11.57;;
12892;SDS011;6514;48.606;9.222;2023-02-15T13:32:43;14.30;;;10.70;;
12892;SDS011;6514;48.606;9.222;2023-02-15T13:35:16;12.73;;;10.10;;
12892;SDS011;6514;48.606;9.222;2023-02-15T13:40:59;14.07;;;10.77;;
12892;SDS011;6514;48.606;9.222;2023-02-15T13:43:35;12.40;;;10.30;;
12892;SDS011;6514;48.606;9.222;2023-02-15T13:46:13;11.70;;;9.30;;
12892;SDS011;6514;48.606;9.222;2023-02-15T13:48:51;11.33;;;9.33;;
12892;SDS011;6514;48.606;9.222;2023-02-15T13:51:34;10.97;;;9.17;;
12892;SDS011;6514;48.606;9.222;2023-02-15T13:54:26;9.63;;;8.70;;
12892;SDS011;6514;48.606;9.222;2023-02-15T13:57:04;9.87;;;8.67;;
12892;SDS011;6514;48.606;9.222;2023-02-15T13:59:47;10.93;;;8.87;;
12892;SDS011;6514;48.606;9.222;2023-02-15T14:02:36;10.10;;;8.70;;
12892;SDS011;6514;48.606;9.222;2023-02-15T14:05:27;9.73;;;8.73;;
12892;SDS011;6514;48.606;9.222;2023-02-15T14:08:13;12.13;;;9.00;;
12892;SDS011;6514;48.606;9.222;2023-02-15T14:10:50;9.43;;;8.43;;
12892;SDS011;6514;48.606;9.222;2023-02-15T14:13:34;11.10;;;9.63;;
12892;SDS011;6514;48.606;9.222;2023-02-15T14:16:12;10.40;;;9.30;;
12892;SDS011;6514;48.606;9.222;2023-02-15T14:18:46;11.57;;;10.17;;
12892;SDS011;6514;48.606;9.222;2023-02-15T14:21:18;11.30;;;10.10;;
12892;SDS011;6514;48.606;9.222;2023-02-15T14:23:56;13.37;;;10.40;;
12892;SDS011;6514;48.606;9.222;2023-02-15T14:26:35;16.20;;;11.10;;
12892;SDS011;6514;48.606;9.222;2023-02-15T14:29:14;14.50;;;13.00;;
12892;SDS011;6514;48.606;9.222;2023-02-15T14:31:50;13.17;;;10.83;;
12892;SDS011;6514;48.606;9.222;2023-02-15T14:34:22;13.73;;;10.87;;
12892;SDS011;6514;48.606;9.222;2023-02-15T14:36:51;12.93;;;10.40;;
12892;SDS011;6514;48.606;9.222;2023-02-15T14:39:25;13.67;;;10.83;;
12892;SDS011;6514;48.606;9.222;2023-02-15T14:42:16;12.57;;;10.37;;
12892;SDS011;6514;48.606;9.222;2023-02-15T14:44:52;12.90;;;9.43;;
12892;SDS011;6514;48.606;9.222;2023-02-15T14:47:25;11.77;;;9.23;;
12892;SDS011;6514;48.606;9.222;2023-02-15T14:49:56;9.17;;;8.13;;
12892;SDS011;6514;48.606;9.222;2023-02-15T14:52:23;10.30;;;8.70;;
12892;SDS011;6514;48.606;9.222;2023-02-15T14:54:56;13.50;;;8.70;;
12892;SDS011;6514;48.606;9.222;2023-02-15T14:57:26;12.67;;;8.47;;
12892;SDS011;6514;48.606;9.222;2023-02-15T14:59:57;9.60;;;7.70;;
12892;SDS011;6514;48.606;9.222;2023-02-15T15:02:27;11.80;;;7.37;;
12892;SDS011;6514;48.606;9.222;2023-02-15T15:05:06;9.63;;;7.37;;
12892;SDS011;6514;48.606;9.222;2023-02-15T15:07:35;8.10;;;6.93;;
12892;SDS011;6514;48.606;9.222;2023-02-15T15:10:34;10.27;;;7.17;;
12892;SDS011;6514;48.606;9.222;2023-02-15T15:16:24;9.47;;;7.53;;
12892;SDS011;6514;48.606;9.222;2023-02-15T15:22:29;9.00;;;7.57;;
12892;SDS011;6514;48.606;9.222;2023-02-15T15:24:57;9.40;;;7.20;;
12892;SDS011;6514;48.606;9.222;2023-02-15T15:27:49;10.80;;;7.63;;